sensor_id;sensor_type;location;lat;lon;timestamp;temperature;humidity
42085;DHT22;27746;52.228;20.890;2022-09-01T00:02:01;14.70;99.10
42085;DHT22;27746;52.228;20.890;2022-09-01T00:04:36;14.60;99.40
42085;DHT22;27746;52.228;20.890;2022-09-01T00:10:32;14.50;99.90
42085;DHT22;27746;52.228;20.890;2022-09-01T00:13:00;14.50;99.90
42085;DHT22;27746;52.228;20.890;2022-09-01T00:15:44;14.40;99.90
42085;DHT22;27746;52.228;20.890;2022-09-01T00:18:15;14.40;99.90
42085;DHT22;27746;52.228;20.890;2022-09-01T00:20:51;14.40;99.90
42085;DHT22;27746;52.228;20.890;2022-09-01T00:23:25;14.30;99.90
42085;DHT22;27746;52.228;20.890;2022-09-01T00:25:54;14.20;99.90
42085;DHT22;27746;52.228;20.890;2022-09-01T00:28:35;14.10;99.90
42085;DHT22;27746;52.228;20.890;2022-09-01T00:31:16;14.00;99.90
42085;DHT22;27746;52.228;20.890;2022-09-01T00:33:47;14.10;99.90
42085;DHT22;27746;52.228;20.890;2022-09-01T00:36:25;14.00;99.90
42085;DHT22;27746;52.228;20.890;2022-09-01T00:42:21;13.80;99.90
42085;DHT22;27746;52.228;20.890;2022-09-01T00:45:39;13.90;99.90
42085;DHT22;27746;52.228;20.890;2022-09-01T00:48:31;13.90;99.90
42085;DHT22;27746;52.228;20.890;2022-09-01T00:51:42;13.90;99.90
42085;DHT22;27746;52.228;20.890;2022-09-01T00:54:17;13.80;99.90
42085;DHT22;27746;52.228;20.890;2022-09-01T00:56:49;13.70;99.90
42085;DHT22;27746;52.228;20.890;2022-09-01T00:59:25;13.70;99.90
42085;DHT22;27746;52.228;20.890;2022-09-01T01:08:33;13.60;99.90
42085;DHT22;27746;52.228;20.890;2022-09-01T01:11:21;13.60;99.90
42085;DHT22;27746;52.228;20.890;2022-09-01T01:13:58;13.70;99.90
42085;DHT22;27746;52.228;20.890;2022-09-01T01:19:47;13.60;99.90
42085;DHT22;27746;52.228;20.890;2022-09-01T01:22:43;13.60;99.90
42085;DHT22;27746;52.228;20.890;2022-09-01T01:25:31;13.50;99.90
42085;DHT22;27746;52.228;20.890;2022-09-01T01:28:05;13.50;99.90
42085;DHT22;27746;52.228;20.890;2022-09-01T01:30:51;13.50;99.90
42085;DHT22;27746;52.228;20.890;2022-09-01T01:33:21;13.50;99.90
42085;DHT22;27746;52.228;20.890;2022-09-01T01:35:50;13.40;99.90
42085;DHT22;27746;52.228;20.890;2022-09-01T01:38:26;13.40;99.90
42085;DHT22;27746;52.228;20.890;2022-09-01T01:41:28;13.30;99.90
42085;DHT22;27746;52.228;20.890;2022-09-01T01:51:12;13.30;99.90
42085;DHT22;27746;52.228;20.890;2022-09-01T02:38:21;12.50;99.90
42085;DHT22;27746;52.228;20.890;2022-09-01T02:40:59;12.40;99.90
42085;DHT22;27746;52.228;20.890;2022-09-01T02:43:28;12.40;99.90
42085;DHT22;27746;52.228;20.890;2022-09-01T02:46:01;12.40;99.90
42085;DHT22;27746;52.228;20.890;2022-09-01T02:48:30;12.30;99.90
42085;DHT22;27746;52.228;20.890;2022-09-01T02:51:01;12.40;99.90
42085;DHT22;27746;52.228;20.890;2022-09-01T02:53:30;12.30;99.90
42085;DHT22;27746;52.228;20.890;2022-09-01T02:55:59;12.30;99.90
42085;DHT22;27746;52.228;20.890;2022-09-01T02:58:27;12.30;99.90
42085;DHT22;27746;52.228;20.890;2022-09-01T03:00:58;12.20;99.90
42085;DHT22;27746;52.228;20.890;2022-09-01T03:03:25;12.30;99.90
42085;DHT22;27746;52.228;20.890;2022-09-01T03:05:53;12.20;99.90
42085;DHT22;27746;52.228;20.890;2022-09-01T03:08:21;12.20;99.90
42085;DHT22;27746;52.228;20.890;2022-09-01T03:10:51;12.20;99.90
42085;DHT22;27746;52.228;20.890;2022-09-01T03:13:20;12.20;99.90
42085;DHT22;27746;52.228;20.890;2022-09-01T03:15:49;12.20;99.90
42085;DHT22;27746;52.228;20.890;2022-09-01T03:18:17;12.10;99.90
42085;DHT22;27746;52.228;20.890;2022-09-01T03:20:45;12.10;99.90
42085;DHT22;27746;52.228;20.890;2022-09-01T03:23:14;12.00;99.90
42085;DHT22;27746;52.228;20.890;2022-09-01T03:25:44;12.00;99.90
42085;DHT22;27746;52.228;20.890;2022-09-01T03:28:13;11.90;99.90
42085;DHT22;27746;52.228;20.890;2022-09-01T03:30:45;11.90;99.90
42085;DHT22;27746;52.228;20.890;2022-09-01T03:33:14;11.80;99.90
42085;DHT22;27746;52.228;20.890;2022-09-01T03:35:42;11.70;99.90
42085;DHT22;27746;52.228;20.890;2022-09-01T03:38:10;11.70;99.90
42085;DHT22;27746;52.228;20.890;2022-09-01T03:40:39;11.60;99.90
42085;DHT22;27746;52.228;20.890;2022-09-01T03:43:08;11.60;99.90
42085;DHT22;27746;52.228;20.890;2022-09-01T03:45:36;11.60;99.90
42085;DHT22;27746;52.228;20.890;2022-09-01T03:48:04;11.50;99.90
42085;DHT22;27746;52.228;20.890;2022-09-01T03:50:34;11.50;99.90
42085;DHT22;27746;52.228;20.890;2022-09-01T03:53:10;11.40;99.90
42085;DHT22;27746;52.228;20.890;2022-09-01T03:55:37;11.40;99.90
42085;DHT22;27746;52.228;20.890;2022-09-01T03:58:07;11.50;99.90
42085;DHT22;27746;52.228;20.890;2022-09-01T04:00:37;11.40;99.90
42085;DHT22;27746;52.228;20.890;2022-09-01T04:03:06;11.40;99.90
42085;DHT22;27746;52.228;20.890;2022-09-01T04:05:34;11.40;99.90
42085;DHT22;27746;52.228;20.890;2022-09-01T04:08:04;11.50;99.90
42085;DHT22;27746;52.228;20.890;2022-09-01T04:10:33;11.50;99.90
42085;DHT22;27746;52.228;20.890;2022-09-01T04:13:01;11.50;99.90
42085;DHT22;27746;52.228;20.890;2022-09-01T04:15:29;11.60;99.90
42085;DHT22;27746;52.228;20.890;2022-09-01T04:17:58;11.60;99.90
42085;DHT22;27746;52.228;20.890;2022-09-01T04:20:34;11.70;99.90
42085;DHT22;27746;52.228;20.890;2022-09-01T04:23:13;11.70;99.90
42085;DHT22;27746;52.228;20.890;2022-09-01T04:25:46;11.70;99.90
42085;DHT22;27746;52.228;20.890;2022-09-01T04:28:15;11.80;99.90
42085;DHT22;27746;52.228;20.890;2022-09-01T04:30:48;11.90;99.90
42085;DHT22;27746;52.228;20.890;2022-09-01T04:33:17;11.90;99.90
42085;DHT22;27746;52.228;20.890;2022-09-01T04:35:44;11.90;99.90
42085;DHT22;27746;52.228;20.890;2022-09-01T04:38:10;12.00;99.90
42085;DHT22;27746;52.228;20.890;2022-09-01T04:40:40;12.10;99.90
42085;DHT22;27746;52.228;20.890;2022-09-01T04:43:07;12.20;99.90
42085;DHT22;27746;52.228;20.890;2022-09-01T04:45:35;12.20;99.90
42085;DHT22;27746;52.228;20.890;2022-09-01T04:48:03;12.40;99.90
42085;DHT22;27746;52.228;20.890;2022-09-01T04:50:52;12.40;99.90
42085;DHT22;27746;52.228;20.890;2022-09-01T04:53:21;12.50;99.90
42085;DHT22;27746;52.228;20.890;2022-09-01T04:55:49;12.70;99.90
42085;DHT22;27746;52.228;20.890;2022-09-01T04:58:20;12.60;99.90
42085;DHT22;27746;52.228;20.890;2022-09-01T05:00:48;12.70;99.90
42085;DHT22;27746;52.228;20.890;2022-09-01T05:03:17;12.80;99.90
42085;DHT22;27746;52.228;20.890;2022-09-01T05:05:51;12.90;99.90
42085;DHT22;27746;52.228;20.890;2022-09-01T05:08:33;13.00;99.90
42085;DHT22;27746;52.228;20.890;2022-09-01T05:11:03;13.10;99.90
42085;DHT22;27746;52.228;20.890;2022-09-01T05:13:32;13.20;99.90
42085;DHT22;27746;52.228;20.890;2022-09-01T05:16:01;13.30;99.90
42085;DHT22;27746;52.228;20.890;2022-09-01T05:18:30;13.40;99.90
42085;DHT22;27746;52.228;20.890;2022-09-01T05:21:04;13.50;99.90
42085;DHT22;27746;52.228;20.890;2022-09-01T05:23:35;13.60;99.90
42085;DHT22;27746;52.228;20.890;2022-09-01T05:26:02;13.70;99.90
42085;DHT22;27746;52.228;20.890;2022-09-01T05:28:39;13.80;99.90
42085;DHT22;27746;52.228;20.890;2022-09-01T05:31:06;13.90;99.90
42085;DHT22;27746;52.228;20.890;2022-09-01T05:33:35;14.00;99.90
42085;DHT22;27746;52.228;20.890;2022-09-01T05:36:06;14.10;99.90
42085;DHT22;27746;52.228;20.890;2022-09-01T05:38:35;14.20;99.90
42085;DHT22;27746;52.228;20.890;2022-09-01T05:41:04;14.30;99.90
42085;DHT22;27746;52.228;20.890;2022-09-01T05:43:33;14.50;99.90
42085;DHT22;27746;52.228;20.890;2022-09-01T05:46:04;14.60;99.90
42085;DHT22;27746;52.228;20.890;2022-09-01T05:48:31;14.80;99.90
42085;DHT22;27746;52.228;20.890;2022-09-01T05:51:06;14.80;99.90
42085;DHT22;27746;52.228;20.890;2022-09-01T05:53:33;14.90;99.90
42085;DHT22;27746;52.228;20.890;2022-09-01T05:56:04;15.00;99.90
42085;DHT22;27746;52.228;20.890;2022-09-01T05:58:32;15.10;99.90
42085;DHT22;27746;52.228;20.890;2022-09-01T06:01:02;15.30;99.90
42085;DHT22;27746;52.228;20.890;2022-09-01T06:03:48;15.30;99.90
42085;DHT22;27746;52.228;20.890;2022-09-01T06:06:26;15.40;99.90
42085;DHT22;27746;52.228;20.890;2022-09-01T06:08:57;15.50;99.90
42085;DHT22;27746;52.228;20.890;2022-09-01T06:11:24;15.60;99.90
42085;DHT22;27746;52.228;20.890;2022-09-01T06:13:53;15.70;99.90
42085;DHT22;27746;52.228;20.890;2022-09-01T06:16:21;15.80;99.90
42085;DHT22;27746;52.228;20.890;2022-09-01T06:18:49;16.00;99.90
42085;DHT22;27746;52.228;20.890;2022-09-01T06:21:17;16.00;99.90
42085;DHT22;27746;52.228;20.890;2022-09-01T06:23:45;16.10;99.90
42085;DHT22;27746;52.228;20.890;2022-09-01T06:26:16;16.30;99.90
42085;DHT22;27746;52.228;20.890;2022-09-01T06:28:43;16.50;99.90
42085;DHT22;27746;52.228;20.890;2022-09-01T06:31:10;16.60;99.90
42085;DHT22;27746;52.228;20.890;2022-09-01T06:33:37;16.70;99.90
42085;DHT22;27746;52.228;20.890;2022-09-01T06:36:05;16.80;99.90
42085;DHT22;27746;52.228;20.890;2022-09-01T06:38:33;16.90;99.90
42085;DHT22;27746;52.228;20.890;2022-09-01T06:41:04;17.00;99.90
42085;DHT22;27746;52.228;20.890;2022-09-01T06:43:37;17.10;99.90
42085;DHT22;27746;52.228;20.890;2022-09-01T06:46:05;17.20;99.90
42085;DHT22;27746;52.228;20.890;2022-09-01T06:48:32;17.40;99.90
42085;DHT22;27746;52.228;20.890;2022-09-01T06:51:00;17.50;99.50
42085;DHT22;27746;52.228;20.890;2022-09-01T06:53:28;17.60;99.30
42085;DHT22;27746;52.228;20.890;2022-09-01T06:55:57;17.70;98.90
42085;DHT22;27746;52.228;20.890;2022-09-01T06:58:25;17.80;98.80
42085;DHT22;27746;52.228;20.890;2022-09-01T07:00:52;17.90;98.10
42085;DHT22;27746;52.228;20.890;2022-09-01T07:03:19;18.00;98.20
42085;DHT22;27746;52.228;20.890;2022-09-01T07:05:47;18.20;98.10
42085;DHT22;27746;52.228;20.890;2022-09-01T07:08:17;18.30;97.00
42085;DHT22;27746;52.228;20.890;2022-09-01T07:10:48;18.40;97.10
42085;DHT22;27746;52.228;20.890;2022-09-01T07:13:19;18.60;97.10
42085;DHT22;27746;52.228;20.890;2022-09-01T07:15:50;18.70;96.50
42085;DHT22;27746;52.228;20.890;2022-09-01T07:18:18;18.80;96.40
42085;DHT22;27746;52.228;20.890;2022-09-01T07:20:46;18.90;96.40
42085;DHT22;27746;52.228;20.890;2022-09-01T07:23:14;19.00;95.60
42085;DHT22;27746;52.228;20.890;2022-09-01T07:25:43;19.10;95.60
42085;DHT22;27746;52.228;20.890;2022-09-01T07:28:13;19.30;95.50
42085;DHT22;27746;52.228;20.890;2022-09-01T07:30:42;19.40;94.70
42085;DHT22;27746;52.228;20.890;2022-09-01T07:33:11;19.50;94.30
42085;DHT22;27746;52.228;20.890;2022-09-01T07:35:39;19.50;94.20
42085;DHT22;27746;52.228;20.890;2022-09-01T07:38:06;19.50;94.20
42085;DHT22;27746;52.228;20.890;2022-09-01T07:40:37;19.50;94.00
42085;DHT22;27746;52.228;20.890;2022-09-01T07:43:06;19.60;94.30
42085;DHT22;27746;52.228;20.890;2022-09-01T07:45:35;19.70;94.10
42085;DHT22;27746;52.228;20.890;2022-09-01T07:48:05;19.70;93.80
42085;DHT22;27746;52.228;20.890;2022-09-01T07:50:35;19.70;93.90
42085;DHT22;27746;52.228;20.890;2022-09-01T07:53:03;19.80;93.60
42085;DHT22;27746;52.228;20.890;2022-09-01T07:55:30;19.80;93.80
42085;DHT22;27746;52.228;20.890;2022-09-01T07:57:57;20.00;93.00
42085;DHT22;27746;52.228;20.890;2022-09-01T08:00:24;20.10;92.70
42085;DHT22;27746;52.228;20.890;2022-09-01T08:02:52;20.40;93.00
42085;DHT22;27746;52.228;20.890;2022-09-01T08:05:19;20.70;92.30
42085;DHT22;27746;52.228;20.890;2022-09-01T08:07:52;20.90;91.40
42085;DHT22;27746;52.228;20.890;2022-09-01T08:10:19;21.10;90.90
42085;DHT22;27746;52.228;20.890;2022-09-01T08:12:46;21.30;90.10
42085;DHT22;27746;52.228;20.890;2022-09-01T08:15:13;21.40;90.00
42085;DHT22;27746;52.228;20.890;2022-09-01T08:17:42;21.60;89.00
42085;DHT22;27746;52.228;20.890;2022-09-01T08:20:10;21.70;87.50
42085;DHT22;27746;52.228;20.890;2022-09-01T08:22:37;21.90;86.70
42085;DHT22;27746;52.228;20.890;2022-09-01T08:25:07;21.90;86.40
42085;DHT22;27746;52.228;20.890;2022-09-01T08:27:34;21.90;85.70
42085;DHT22;27746;52.228;20.890;2022-09-01T08:30:04;21.90;84.70
42085;DHT22;27746;52.228;20.890;2022-09-01T08:32:31;21.60;84.30
42085;DHT22;27746;52.228;20.890;2022-09-01T08:34:59;21.30;85.70
42085;DHT22;27746;52.228;20.890;2022-09-01T08:37:26;20.90;85.60
42085;DHT22;27746;52.228;20.890;2022-09-01T08:39:53;20.70;86.70
42085;DHT22;27746;52.228;20.890;2022-09-01T08:42:31;20.40;87.70
42085;DHT22;27746;52.228;20.890;2022-09-01T08:45:12;20.40;89.20
42085;DHT22;27746;52.228;20.890;2022-09-01T08:47:41;20.20;90.20
42085;DHT22;27746;52.228;20.890;2022-09-01T08:50:08;20.10;90.10
42085;DHT22;27746;52.228;20.890;2022-09-01T08:52:39;20.00;90.20
42085;DHT22;27746;52.228;20.890;2022-09-01T08:55:12;19.90;90.40
42085;DHT22;27746;52.228;20.890;2022-09-01T08:57:44;19.80;90.50
42085;DHT22;27746;52.228;20.890;2022-09-01T09:00:14;19.70;90.70
42085;DHT22;27746;52.228;20.890;2022-09-01T09:02:54;19.80;91.00
42085;DHT22;27746;52.228;20.890;2022-09-01T09:05:32;20.00;91.00
42085;DHT22;27746;52.228;20.890;2022-09-01T09:08:24;20.30;90.50
42085;DHT22;27746;52.228;20.890;2022-09-01T09:10:57;20.60;89.80
42085;DHT22;27746;52.228;20.890;2022-09-01T09:13:34;20.80;89.60
42085;DHT22;27746;52.228;20.890;2022-09-01T09:16:07;21.00;88.70
42085;DHT22;27746;52.228;20.890;2022-09-01T09:18:41;21.10;87.20
42085;DHT22;27746;52.228;20.890;2022-09-01T09:21:13;21.30;87.30
42085;DHT22;27746;52.228;20.890;2022-09-01T09:23:44;21.50;85.20
42085;DHT22;27746;52.228;20.890;2022-09-01T09:26:12;21.70;83.20
42085;DHT22;27746;52.228;20.890;2022-09-01T09:28:40;21.80;81.90
42085;DHT22;27746;52.228;20.890;2022-09-01T09:31:30;21.80;81.00
42085;DHT22;27746;52.228;20.890;2022-09-01T09:33:57;21.90;81.10
42085;DHT22;27746;52.228;20.890;2022-09-01T09:36:30;21.90;81.80
42085;DHT22;27746;52.228;20.890;2022-09-01T09:39:10;21.90;81.90
42085;DHT22;27746;52.228;20.890;2022-09-01T09:41:38;22.00;82.00
42085;DHT22;27746;52.228;20.890;2022-09-01T09:44:18;22.10;81.80
42085;DHT22;27746;52.228;20.890;2022-09-01T09:46:47;22.10;81.30
42085;DHT22;27746;52.228;20.890;2022-09-01T09:49:18;22.30;81.10
42085;DHT22;27746;52.228;20.890;2022-09-01T09:51:47;22.40;80.70
42085;DHT22;27746;52.228;20.890;2022-09-01T09:54:20;22.60;80.50
42085;DHT22;27746;52.228;20.890;2022-09-01T09:56:49;22.80;80.50
42085;DHT22;27746;52.228;20.890;2022-09-01T09:59:30;23.10;80.90
42085;DHT22;27746;52.228;20.890;2022-09-01T10:01:57;23.50;79.40
42085;DHT22;27746;52.228;20.890;2022-09-01T10:04:34;23.80;77.50
42085;DHT22;27746;52.228;20.890;2022-09-01T10:07:05;24.00;76.70
42085;DHT22;27746;52.228;20.890;2022-09-01T10:09:42;24.00;74.80
42085;DHT22;27746;52.228;20.890;2022-09-01T10:12:09;24.10;73.30
42085;DHT22;27746;52.228;20.890;2022-09-01T10:14:41;24.30;71.80
42085;DHT22;27746;52.228;20.890;2022-09-01T10:17:12;24.30;70.40
42085;DHT22;27746;52.228;20.890;2022-09-01T10:19:48;24.40;70.70
42085;DHT22;27746;52.228;20.890;2022-09-01T10:22:16;24.40;69.20
42085;DHT22;27746;52.228;20.890;2022-09-01T10:24:43;24.50;69.10
42085;DHT22;27746;52.228;20.890;2022-09-01T10:27:14;24.50;68.40
42085;DHT22;27746;52.228;20.890;2022-09-01T10:29:47;24.50;69.10
42085;DHT22;27746;52.228;20.890;2022-09-01T10:32:19;24.50;69.40
42085;DHT22;27746;52.228;20.890;2022-09-01T10:34:46;24.60;68.60
42085;DHT22;27746;52.228;20.890;2022-09-01T10:37:13;24.50;68.10
42085;DHT22;27746;52.228;20.890;2022-09-01T10:40:09;24.60;67.40
42085;DHT22;27746;52.228;20.890;2022-09-01T10:42:37;24.70;67.20
42085;DHT22;27746;52.228;20.890;2022-09-01T10:45:16;24.80;67.20
42085;DHT22;27746;52.228;20.890;2022-09-01T10:47:44;24.90;66.90
42085;DHT22;27746;52.228;20.890;2022-09-01T10:50:27;24.90;67.00
42085;DHT22;27746;52.228;20.890;2022-09-01T10:53:03;25.00;66.10
42085;DHT22;27746;52.228;20.890;2022-09-01T10:55:43;24.90;64.00
42085;DHT22;27746;52.228;20.890;2022-09-01T10:58:38;24.90;64.00
42085;DHT22;27746;52.228;20.890;2022-09-01T11:01:09;24.90;63.30
42085;DHT22;27746;52.228;20.890;2022-09-01T11:03:52;24.80;64.20
42085;DHT22;27746;52.228;20.890;2022-09-01T11:09:04;24.90;63.70
42085;DHT22;27746;52.228;20.890;2022-09-01T11:11:38;25.00;64.40
42085;DHT22;27746;52.228;20.890;2022-09-01T11:14:16;25.00;64.20
42085;DHT22;27746;52.228;20.890;2022-09-01T11:19:38;25.10;63.70
42085;DHT22;27746;52.228;20.890;2022-09-01T11:22:18;25.40;62.40
42085;DHT22;27746;52.228;20.890;2022-09-01T11:24:48;25.40;62.90
42085;DHT22;27746;52.228;20.890;2022-09-01T11:30:19;25.80;63.30
42085;DHT22;27746;52.228;20.890;2022-09-01T11:32:49;26.00;62.70
42085;DHT22;27746;52.228;20.890;2022-09-01T11:35:20;26.20;60.90
42085;DHT22;27746;52.228;20.890;2022-09-01T11:37:49;26.10;59.30
42085;DHT22;27746;52.228;20.890;2022-09-01T11:40:20;25.90;59.80
42085;DHT22;27746;52.228;20.890;2022-09-01T11:42:49;26.00;60.50
42085;DHT22;27746;52.228;20.890;2022-09-01T11:45:22;25.80;59.70
42085;DHT22;27746;52.228;20.890;2022-09-01T11:47:53;25.50;60.00
42085;DHT22;27746;52.228;20.890;2022-09-01T11:50:24;25.50;60.40
42085;DHT22;27746;52.228;20.890;2022-09-01T11:52:54;25.50;60.80
42085;DHT22;27746;52.228;20.890;2022-09-01T11:55:29;25.60;60.90
42085;DHT22;27746;52.228;20.890;2022-09-01T11:57:57;25.60;60.20
42085;DHT22;27746;52.228;20.890;2022-09-01T12:00:26;25.30;59.90
42085;DHT22;27746;52.228;20.890;2022-09-01T12:02:53;25.30;59.70
42085;DHT22;27746;52.228;20.890;2022-09-01T12:05:29;25.30;59.20
42085;DHT22;27746;52.228;20.890;2022-09-01T12:07:57;25.20;60.50
42085;DHT22;27746;52.228;20.890;2022-09-01T12:10:30;25.20;60.20
42085;DHT22;27746;52.228;20.890;2022-09-01T12:13:03;25.20;60.30
42085;DHT22;27746;52.228;20.890;2022-09-01T12:15:31;25.30;60.00
42085;DHT22;27746;52.228;20.890;2022-09-01T12:18:12;25.30;59.10
42085;DHT22;27746;52.228;20.890;2022-09-01T12:20:41;25.20;57.60
42085;DHT22;27746;52.228;20.890;2022-09-01T12:23:18;25.20;58.30
42085;DHT22;27746;52.228;20.890;2022-09-01T12:25:48;25.30;58.10
42085;DHT22;27746;52.228;20.890;2022-09-01T12:28:15;25.50;58.70
42085;DHT22;27746;52.228;20.890;2022-09-01T12:30:43;25.60;58.20
42085;DHT22;27746;52.228;20.890;2022-09-01T12:33:11;25.60;58.00
42085;DHT22;27746;52.228;20.890;2022-09-01T12:35:39;25.30;58.20
42085;DHT22;27746;52.228;20.890;2022-09-01T12:38:28;25.00;58.60
42085;DHT22;27746;52.228;20.890;2022-09-01T12:40:57;24.80;59.60
42085;DHT22;27746;52.228;20.890;2022-09-01T12:43:29;24.50;59.50
42085;DHT22;27746;52.228;20.890;2022-09-01T12:45:57;24.40;59.50
42085;DHT22;27746;52.228;20.890;2022-09-01T12:48:27;24.40;59.40
42085;DHT22;27746;52.228;20.890;2022-09-01T12:50:56;24.30;59.70
42085;DHT22;27746;52.228;20.890;2022-09-01T12:53:27;24.40;59.30
42085;DHT22;27746;52.228;20.890;2022-09-01T12:56:05;24.50;59.30
42085;DHT22;27746;52.228;20.890;2022-09-01T12:58:32;24.70;59.50
42085;DHT22;27746;52.228;20.890;2022-09-01T13:01:02;24.90;59.40
42085;DHT22;27746;52.228;20.890;2022-09-01T13:03:30;25.00;59.00
42085;DHT22;27746;52.228;20.890;2022-09-01T13:05:59;25.30;58.50
42085;DHT22;27746;52.228;20.890;2022-09-01T13:08:28;25.30;58.50
42085;DHT22;27746;52.228;20.890;2022-09-01T13:11:01;25.40;56.90
42085;DHT22;27746;52.228;20.890;2022-09-01T13:13:29;25.60;57.50
42085;DHT22;27746;52.228;20.890;2022-09-01T13:15:57;25.80;56.60
42085;DHT22;27746;52.228;20.890;2022-09-01T13:18:26;25.90;56.50
42085;DHT22;27746;52.228;20.890;2022-09-01T13:20:54;26.00;56.30
42085;DHT22;27746;52.228;20.890;2022-09-01T13:23:21;26.10;56.60
42085;DHT22;27746;52.228;20.890;2022-09-01T13:25:49;26.20;56.80
42085;DHT22;27746;52.228;20.890;2022-09-01T13:28:16;26.10;56.80
42085;DHT22;27746;52.228;20.890;2022-09-01T13:30:46;26.00;57.00
42085;DHT22;27746;52.228;20.890;2022-09-01T13:33:17;25.70;56.60
42085;DHT22;27746;52.228;20.890;2022-09-01T13:35:44;25.10;57.50
42085;DHT22;27746;52.228;20.890;2022-09-01T13:38:10;24.70;58.20
42085;DHT22;27746;52.228;20.890;2022-09-01T13:40:41;24.30;59.30
42085;DHT22;27746;52.228;20.890;2022-09-01T13:43:09;24.00;60.00
42085;DHT22;27746;52.228;20.890;2022-09-01T13:45:36;23.80;60.60
42085;DHT22;27746;52.228;20.890;2022-09-01T13:48:05;23.70;60.70
42085;DHT22;27746;52.228;20.890;2022-09-01T13:50:32;23.50;61.30
42085;DHT22;27746;52.228;20.890;2022-09-01T13:52:59;23.40;61.90
42085;DHT22;27746;52.228;20.890;2022-09-01T13:55:28;23.40;61.80
42085;DHT22;27746;52.228;20.890;2022-09-01T13:57:55;23.30;61.50
42085;DHT22;27746;52.228;20.890;2022-09-01T14:00:26;23.40;61.30
42085;DHT22;27746;52.228;20.890;2022-09-01T14:02:56;23.60;60.20
42085;DHT22;27746;52.228;20.890;2022-09-01T14:05:25;23.70;59.80
42085;DHT22;27746;52.228;20.890;2022-09-01T14:07:52;23.70;59.50
42085;DHT22;27746;52.228;20.890;2022-09-01T14:10:21;23.80;59.00
42085;DHT22;27746;52.228;20.890;2022-09-01T14:12:48;23.80;59.20
42085;DHT22;27746;52.228;20.890;2022-09-01T14:15:17;23.80;59.60
42085;DHT22;27746;52.228;20.890;2022-09-01T14:17:47;23.70;59.80
42085;DHT22;27746;52.228;20.890;2022-09-01T14:20:17;23.60;60.60
42085;DHT22;27746;52.228;20.890;2022-09-01T14:22:44;23.40;60.90
42085;DHT22;27746;52.228;20.890;2022-09-01T14:25:11;23.10;61.60
42085;DHT22;27746;52.228;20.890;2022-09-01T14:27:39;22.80;61.50
42085;DHT22;27746;52.228;20.890;2022-09-01T14:30:08;22.60;62.00
42085;DHT22;27746;52.228;20.890;2022-09-01T14:32:36;22.60;62.20
42085;DHT22;27746;52.228;20.890;2022-09-01T14:35:06;22.70;62.10
42085;DHT22;27746;52.228;20.890;2022-09-01T14:37:33;22.80;61.50
42085;DHT22;27746;52.228;20.890;2022-09-01T14:40:04;23.00;61.20
42085;DHT22;27746;52.228;20.890;2022-09-01T14:42:34;23.20;60.80
42085;DHT22;27746;52.228;20.890;2022-09-01T14:45:01;23.20;61.40
42085;DHT22;27746;52.228;20.890;2022-09-01T14:47:29;23.10;61.10
42085;DHT22;27746;52.228;20.890;2022-09-01T14:49:56;23.10;61.30
42085;DHT22;27746;52.228;20.890;2022-09-01T14:52:25;23.20;61.30
42085;DHT22;27746;52.228;20.890;2022-09-01T14:54:52;23.20;60.90
42085;DHT22;27746;52.228;20.890;2022-09-01T14:57:19;23.20;60.70
42085;DHT22;27746;52.228;20.890;2022-09-01T14:59:46;23.10;60.30
42085;DHT22;27746;52.228;20.890;2022-09-01T15:02:13;23.00;60.70
42085;DHT22;27746;52.228;20.890;2022-09-01T15:04:40;22.80;61.30
42085;DHT22;27746;52.228;20.890;2022-09-01T15:07:08;22.60;61.70
42085;DHT22;27746;52.228;20.890;2022-09-01T15:09:36;22.50;61.80
42085;DHT22;27746;52.228;20.890;2022-09-01T15:12:03;22.30;62.20
42085;DHT22;27746;52.228;20.890;2022-09-01T15:14:31;22.10;62.10
42085;DHT22;27746;52.228;20.890;2022-09-01T15:16:58;22.00;61.80
42085;DHT22;27746;52.228;20.890;2022-09-01T15:19:25;21.80;62.00
42085;DHT22;27746;52.228;20.890;2022-09-01T15:21:52;21.70;62.60
42085;DHT22;27746;52.228;20.890;2022-09-01T15:24:18;21.60;63.50
42085;DHT22;27746;52.228;20.890;2022-09-01T15:26:47;21.50;64.40
42085;DHT22;27746;52.228;20.890;2022-09-01T15:29:14;21.30;65.00
42085;DHT22;27746;52.228;20.890;2022-09-01T15:31:42;21.30;65.80
42085;DHT22;27746;52.228;20.890;2022-09-01T15:34:10;21.30;66.00
42085;DHT22;27746;52.228;20.890;2022-09-01T15:36:39;21.30;65.80
42085;DHT22;27746;52.228;20.890;2022-09-01T15:39:07;21.30;65.50
42085;DHT22;27746;52.228;20.890;2022-09-01T15:41:35;21.20;65.30
42085;DHT22;27746;52.228;20.890;2022-09-01T15:44:06;21.20;64.80
42085;DHT22;27746;52.228;20.890;2022-09-01T15:46:33;21.10;64.50
42085;DHT22;27746;52.228;20.890;2022-09-01T15:49:05;20.90;64.20
42085;DHT22;27746;52.228;20.890;2022-09-01T15:51:33;20.80;64.90
42085;DHT22;27746;52.228;20.890;2022-09-01T15:54:05;20.70;65.50
42085;DHT22;27746;52.228;20.890;2022-09-01T15:56:32;20.60;65.50
42085;DHT22;27746;52.228;20.890;2022-09-01T15:59:00;20.60;66.00
42085;DHT22;27746;52.228;20.890;2022-09-01T16:01:30;20.60;65.80
42085;DHT22;27746;52.228;20.890;2022-09-01T16:03:58;20.50;65.90
42085;DHT22;27746;52.228;20.890;2022-09-01T16:06:26;20.30;65.90
42085;DHT22;27746;52.228;20.890;2022-09-01T16:08:53;20.30;66.60
42085;DHT22;27746;52.228;20.890;2022-09-01T16:11:26;20.30;66.80
42085;DHT22;27746;52.228;20.890;2022-09-01T16:14:03;20.20;67.10
42085;DHT22;27746;52.228;20.890;2022-09-01T16:16:48;20.10;67.00
42085;DHT22;27746;52.228;20.890;2022-09-01T16:19:26;20.10;67.30
42085;DHT22;27746;52.228;20.890;2022-09-01T16:22:02;20.00;67.80
42085;DHT22;27746;52.228;20.890;2022-09-01T16:24:33;20.00;67.90
42085;DHT22;27746;52.228;20.890;2022-09-01T16:27:14;19.90;68.20
42085;DHT22;27746;52.228;20.890;2022-09-01T16:29:46;19.90;68.30
42085;DHT22;27746;52.228;20.890;2022-09-01T16:32:16;19.80;68.10
42085;DHT22;27746;52.228;20.890;2022-09-01T16:34:46;19.80;68.00
42085;DHT22;27746;52.228;20.890;2022-09-01T16:37:23;19.80;68.10
42085;DHT22;27746;52.228;20.890;2022-09-01T16:40:02;19.70;68.20
42085;DHT22;27746;52.228;20.890;2022-09-01T16:42:38;19.60;68.40
42085;DHT22;27746;52.228;20.890;2022-09-01T16:45:15;19.60;69.10
42085;DHT22;27746;52.228;20.890;2022-09-01T16:47:53;19.50;69.80
42085;DHT22;27746;52.228;20.890;2022-09-01T16:50:33;19.50;69.80
42085;DHT22;27746;52.228;20.890;2022-09-01T16:53:09;19.40;70.00
42085;DHT22;27746;52.228;20.890;2022-09-01T16:55:47;19.30;69.60
42085;DHT22;27746;52.228;20.890;2022-09-01T16:58:20;19.30;69.80